Schofield, Hawaii
Current Conditions -  °F | °C
As of 12:58 AM on Friday 31 Oct 2014 (Local Time) from PHHI Reporting Station
Clear Clear  
Wind Chill: 72°   Ceiling: Unl
Heat Index: 72°   Visibility: 10mi
Dew Point: 65°   Wind: 7mph
Humidity: 79%   Direction: 80°E
Pressure: 30.06"   Gusts: NA
Location:  21.4794°N, 158.1°W
Report Text: PHHI 311058Z AUTO 08006KT 10SM CLR 22/19 A3006 RMK AO2 DZB0957E1007 SLP169 P0000 T02240186 $
Loading
Personal Weather Stations






























Interactive Weather Map
Tropical Storm Tracking
New forecast layout! Learn more

10-Day Weather Forecast

Advertisements
Track Severe Weather on mobile